Time;durP1;ratioP1;P1;durP2;ratioP2;P2;SDS_P1;SDS_P2;PMS_P1;PMS_P2;Temp;Humidity;BMP_temperature;BMP_pressure;BME280_temperature;BME280_humidity;BME280_pressure;Samples;Min_cycle;Max_cycle;Signal;HPM_P1;HPM_P2
2022/05/17 00:02:05;;;;;;;5.72;3.47;;;;;;;18.60;52.37;101919.88;4923404;28;118581;-79
2022/05/17 00:04:33;;;;;;;6.15;3.15;;;;;;;18.61;52.45;101916.22;4907234;28;118854;-79
2022/05/17 00:07:03;;;;;;;10.05;4.07;;;;;;;18.60;52.47;101915.38;4905512;28;123999;-79
2022/05/17 00:09:30;;;;;;;6.22;3.72;;;;;;;18.59;52.43;101923.50;4908769;28;123237;-79
2022/05/17 00:11:59;;;;;;;6.07;3.35;;;;;;;18.58;52.54;101917.28;4922378;28;120589;-79
2022/05/17 00:14:27;;;;;;;5.85;3.70;;;;;;;18.59;52.71;101912.78;4919489;28;119687;-79
2022/05/17 00:16:54;;;;;;;7.28;3.70;;;;;;;18.60;52.56;101918.06;4922905;28;123524;-79
2022/05/17 00:19:21;;;;;;;7.45;3.80;;;;;;;18.61;52.52;101916.22;4931771;28;122762;-81
2022/05/17 00:21:49;;;;;;;7.82;3.80;;;;;;;18.63;52.55;101914.34;4912419;28;119427;-79
2022/05/17 00:24:19;;;;;;;10.15;3.72;;;;;;;18.61;52.75;101916.22;4910276;28;119037;-79
2022/05/17 00:26:46;;;;;;;7.30;3.60;;;;;;;18.60;52.47;101919.88;4914637;28;123429;-78
2022/05/17 00:29:14;;;;;;;6.32;3.35;;;;;;;18.59;52.54;101918.16;4896569;28;123719;-79
2022/05/17 00:31:41;;;;;;;7.57;3.53;;;;;;;18.57;52.55;101925.44;4892558;28;118930;-79
2022/05/17 00:34:08;;;;;;;8.13;3.60;;;;;;;18.55;52.52;101917.47;4898423;28;118272;-79
2022/05/17 00:36:36;;;;;;;6.35;3.38;;;;;;;18.53;52.51;101913.16;4900614;28;123108;-79
2022/05/17 00:39:03;;;;;;;8.52;4.03;;;;;;;18.52;52.42;101919.50;4907376;28;122804;-79
2022/05/17 00:41:30;;;;;;;7.75;3.53;;;;;;;18.50;52.59;101919.59;4905242;28;119985;-79
2022/05/17 00:46:57;;;;;;;8.82;3.50;;;;;;;18.46;52.56;101912.69;4898546;28;123963;-79
2022/05/17 00:49:31;;;;;;;8.13;3.55;;;;;;;18.44;52.67;101915.47;4918102;28;123381;-79
2022/05/17 00:52:04;;;;;;;7.85;3.55;;;;;;;18.42;52.65;101901.28;4897261;28;118402;-79
2022/05/17 00:54:33;;;;;;;7.32;3.40;;;;;;;18.41;52.64;101904.91;4898751;28;118728;-79
2022/05/17 00:57:09;;;;;;;6.40;3.50;;;;;;;18.40;52.70;101907.69;4914827;28;124297;-79
2022/05/17 00:59:37;;;;;;;7.70;3.63;;;;;;;18.38;52.67;101905.09;4887202;28;124128;-79
2022/05/17 01:02:08;;;;;;;6.22;3.33;;;;;;;18.35;52.70;101905.31;4889818;28;120019;-80
2022/05/17 01:04:36;;;;;;;9.38;3.70;;;;;;;18.34;52.58;101908.91;4907777;28;119721;-79
2022/05/17 01:07:08;;;;;;;7.00;3.20;;;;;;;18.32;52.63;101899.25;4905523;28;122688;-78
2022/05/17 01:09:35;;;;;;;5.97;3.22;;;;;;;18.29;52.65;101895.81;4906905;28;123685;-79
2022/05/17 01:12:02;;;;;;;8.10;3.60;;;;;;;18.26;52.75;101895.97;4906919;28;118804;-79
2022/05/17 01:17:15;;;;;;;7.15;3.08;;;;;;;18.20;52.56;101895.50;4903773;28;124281;-78
2022/05/17 01:19:44;;;;;;;7.10;3.60;;;;;;;18.16;52.77;101893.94;4906247;28;124078;-78
2022/05/17 01:22:11;;;;;;;5.45;3.05;;;;;;;18.13;52.62;101910.22;4927020;28;119357;-78
2022/05/17 01:24:39;;;;;;;6.38;3.45;;;;;;;18.11;52.80;101904.09;4909106;28;119509;-78
2022/05/17 01:27:13;;;;;;;8.35;3.40;;;;;;;18.07;52.87;101906.94;4905571;28;123021;-78
2022/05/17 01:29:42;;;;;;;6.13;3.38;;;;;;;18.04;52.91;101896.41;4921693;28;123274;-78
2022/05/17 01:32:12;;;;;;;6.10;3.13;;;;;;;18.01;52.97;101896.59;4908935;28;118815;-79
2022/05/17 01:34:40;;;;;;;5.43;3.40;;;;;;;17.98;52.81;101902.13;4900790;28;119327;-78
2022/05/17 01:37:08;;;;;;;7.55;3.33;;;;;;;17.95;53.27;101902.34;4901397;28;124021;-78
2022/05/17 01:39:35;;;;;;;7.25;3.28;;;;;;;17.92;53.08;101891.78;4902665;28;124275;-78
2022/05/17 01:42:02;;;;;;;8.20;3.60;;;;;;;17.92;53.17;101899.84;4907469;28;120630;-78
2022/05/17 01:44:30;;;;;;;8.88;3.63;;;;;;;17.91;53.45;101895.41;4919050;28;118631;-80
2022/05/17 01:46:57;;;;;;;6.88;3.58;;;;;;;17.90;53.48;101886.50;4901189;28;124227;-78
2022/05/17 01:49:24;;;;;;;12.23;4.00;;;;;;;17.91;53.70;101895.41;4906526;28;124022;-78
2022/05/17 01:51:51;;;;;;;7.90;3.72;;;;;;;17.94;53.79;101889.88;4908038;28;119527;-79
2022/05/17 01:54:18;;;;;;;6.95;3.40;;;;;;;17.98;53.83;101896.78;4903562;28;120230;-78
2022/05/17 01:56:45;;;;;;;5.78;3.58;;;;;;;18.01;53.94;101901.97;4906049;28;124639;-78
2022/05/17 01:59:13;;;;;;;7.47;3.60;;;;;;;18.03;53.94;101894.69;4908754;28;124758;-78
2022/05/17 02:01:40;;;;;;;5.60;3.60;;;;;;;18.03;53.80;101889.34;4903701;28;119202;-78
2022/05/17 02:04:08;;;;;;;6.65;3.45;;;;;;;18.05;53.78;101891.94;4924578;28;96885;-78
2022/05/17 02:06:35;;;;;;;5.72;3.22;;;;;;;18.04;53.45;101896.41;4918962;28;123628;-77
2022/05/17 02:09:03;;;;;;;6.63;3.53;;;;;;;18.01;53.83;101901.13;4906066;28;124003;-78
2022/05/17 02:11:30;;;;;;;7.18;3.33;;;;;;;17.96;53.53;101898.69;4881531;28;119317;-78
2022/05/17 02:13:57;;;;;;;9.77;3.45;;;;;;;17.94;53.76;101900.59;4897470;28;118792;-78
2022/05/17 02:16:24;;;;;;;5.22;3.22;;;;;;;17.91;53.93;101900.78;4899189;28;123730;-78
2022/05/17 02:18:51;;;;;;;7.03;3.70;;;;;;;17.89;53.93;101902.69;4913067;28;123648;-78
2022/05/17 02:21:18;;;;;;;8.52;3.92;;;;;;;17.89;54.19;101913.41;4903834;28;119210;-78
2022/05/17 02:23:45;;;;;;;5.88;3.55;;;;;;;17.91;54.25;101911.50;4907153;28;118865;-78
2022/05/17 02:26:12;;;;;;;6.55;3.42;;;;;;;17.92;54.39;101912.38;4908487;28;124469;-78
2022/05/17 02:28:43;;;;;;;8.68;3.58;;;;;;;17.93;54.33;101914.09;4921490;28;122444;-78
2022/05/17 02:31:15;;;;;;;9.80;3.63;;;;;;;17.95;54.52;101913.06;4923753;28;118459;-78
2022/05/17 02:33:42;;;;;;;11.38;3.78;;;;;;;18.00;54.38;101915.47;4912001;28;118745;-78
2022/05/17 02:36:09;;;;;;;8.13;3.58;;;;;;;18.02;54.30;101921.59;4923339;28;122167;-78
2022/05/17 02:38:37;;;;;;;8.70;3.80;;;;;;;18.05;54.38;101922.28;4909054;28;123482;-78
2022/05/17 02:41:04;;;;;;;10.18;3.60;;;;;;;18.08;54.47;101919.41;4901743;28;119475;-78
2022/05/17 02:43:31;;;;;;;7.80;3.38;;;;;;;18.14;54.64;101917.31;4908101;28;120120;-78
2022/05/17 02:46:04;;;;;;;6.65;3.92;;;;;;;18.16;54.54;101912.72;4904945;28;123694;-78
2022/05/17 02:48:32;;;;;;;5.05;3.35;;;;;;;18.20;54.63;101916.97;4877899;28;123411;-78
2022/05/17 02:51:13;;;;;;;10.80;4.07;;;;;;;18.23;54.57;101919.44;4915301;28;119876;-78
2022/05/17 02:53:41;;;;;;;6.63;3.67;;;;;;;18.26;54.52;101911.22;4904240;28;119940;-78
2022/05/17 02:56:09;;;;;;;7.72;3.78;;;;;;;18.31;54.81;101913.59;4915318;28;124339;-78
2022/05/17 02:58:37;;;;;;;6.85;3.47;;;;;;;18.35;54.65;101916.03;4907065;28;123016;-78
2022/05/17 03:01:06;;;;;;;5.55;3.70;;;;;;;18.38;54.70;101914.97;4918994;28;119864;-78
2022/05/17 03:03:37;;;;;;;6.82;3.55;;;;;;;18.41;54.84;101917.47;4921803;28;118903;-78
2022/05/17 03:06:04;;;;;;;7.43;3.58;;;;;;;18.43;54.61;101919.09;4896675;28;121924;-78
2022/05/17 03:08:32;;;;;;;6.38;3.45;;;;;;;18.44;54.55;101915.47;4908748;28;122747;-78
2022/05/17 03:10:59;;;;;;;6.07;3.25;;;;;;;18.46;54.78;101918.91;4913649;28;122339;-78
2022/05/17 03:13:26;;;;;;;6.60;3.50;;;;;;;18.48;54.75;101921.50;4906490;28;118881;-78
2022/05/17 03:15:53;;;;;;;7.85;4.00;;;;;;;18.48;54.67;101926.88;4915628;28;123308;-78
2022/05/17 03:18:21;;;;;;;4.43;2.92;;;;;;;18.47;54.48;101920.63;4910557;28;122894;-78
2022/05/17 03:20:48;;;;;;;6.75;3.22;;;;;;;18.47;54.46;101926.00;4895713;28;119441;-78
2022/05/17 03:23:16;;;;;;;7.35;3.60;;;;;;;18.47;54.71;101925.13;4898993;28;119311;-78
2022/05/17 03:25:43;;;;;;;7.20;3.22;;;;;;;18.48;54.68;101932.25;4912506;28;123634;-78
2022/05/17 03:28:13;;;;;;;6.97;3.13;;;;;;;18.47;54.68;101930.50;4900971;28;123016;-78
2022/05/17 03:30:41;;;;;;;7.43;3.67;;;;;;;18.46;54.78;101929.66;4900483;28;121081;-78
2022/05/17 03:33:09;;;;;;;6.15;3.60;;;;;;;18.46;54.73;101929.66;4906549;28;119990;-78
2022/05/17 03:35:36;;;;;;;5.60;3.00;;;;;;;18.46;54.61;101929.66;4921398;28;124850;-78
2022/05/17 03:38:03;;;;;;;7.43;3.25;;;;;;;18.46;54.55;101924.28;4902513;28;122700;-79
2022/05/17 03:40:31;;;;;;;13.90;3.88;;;;;;;18.46;54.83;101924.28;4909654;28;119669;-78
2022/05/17 03:42:58;;;;;;;7.95;4.28;;;;;;;18.47;54.58;101920.63;4915758;28;117060;-79
2022/05/17 03:45:26;;;;;;;9.35;3.83;;;;;;;18.48;54.78;101922.38;4927181;28;123771;-78
2022/05/17 03:47:53;;;;;;;8.95;3.67;;;;;;;18.49;54.79;101924.06;4916472;28;123882;-78
2022/05/17 03:50:20;;;;;;;11.20;3.80;;;;;;;18.50;54.71;101919.59;4910879;28;117815;-78
2022/05/17 03:52:47;;;;;;;7.88;3.65;;;;;;;18.47;54.76;101920.63;4907308;28;118556;-78
2022/05/17 03:55:15;;;;;;;6.07;3.55;;;;;;;18.48;54.65;101925.06;4906426;28;125292;-79
2022/05/17 03:57:43;;;;;;;10.65;4.07;;;;;;;18.48;55.08;101922.38;4909359;28;124514;-78
2022/05/17 04:00:11;;;;;;;10.75;4.35;;;;;;;18.48;54.88;101926.88;4913508;28;118349;-78
2022/05/17 04:02:43;;;;;;;7.28;3.78;;;;;;;18.48;55.22;101926.88;4911905;28;119522;-78
2022/05/17 04:05:11;;;;;;;11.73;4.30;;;;;;;18.51;55.25;101928.50;4904335;28;123828;-78
2022/05/17 04:07:38;;;;;;;6.93;3.75;;;;;;;18.52;55.30;101932.94;4925183;28;124531;-79
2022/05/17 04:10:07;;;;;;;6.10;4.07;;;;;;;18.56;55.24;101934.47;4911135;28;120378;-78
2022/05/17 04:12:35;;;;;;;7.30;3.83;;;;;;;18.58;55.17;101932.53;4907723;28;119337;-79
2022/05/17 04:15:04;;;;;;;8.32;3.67;;;;;;;18.60;54.93;101936.00;4913543;28;124023;-79
2022/05/17 04:17:33;;;;;;;7.47;3.88;;;;;;;18.63;55.28;101935.81;4909879;28;123130;-79
2022/05/17 04:20:00;;;;;;;8.77;3.88;;;;;;;18.62;55.20;101928.69;4907546;28;119192;-79
2022/05/17 04:22:27;;;;;;;9.52;3.60;;;;;;;18.61;55.21;101943.06;4897028;28;119352;-79
2022/05/17 04:24:56;;;;;;;7.25;3.50;;;;;;;18.61;55.41;101940.38;4917404;28;122913;-79
2022/05/17 04:27:25;;;;;;;8.50;3.97;;;;;;;18.63;55.36;101941.19;4903717;28;122229;-79
2022/05/17 04:29:52;;;;;;;7.28;4.20;;;;;;;18.66;55.44;101935.59;4890080;28;119221;-78
2022/05/17 04:32:20;;;;;;;9.40;4.57;;;;;;;18.68;55.47;101933.69;4916161;28;117811;-79
2022/05/17 04:34:47;;;;;;;8.10;4.40;;;;;;;18.71;55.36;101938.88;4901517;28;123512;-78
2022/05/17 04:37:14;;;;;;;9.00;4.53;;;;;;;18.71;55.52;101944.25;4899467;28;122926;-79
2022/05/17 04:39:43;;;;;;;8.07;4.85;;;;;;;18.74;55.49;101946.75;4904363;28;118958;-79
2022/05/17 04:42:10;;;;;;;9.10;4.45;;;;;;;18.78;55.64;101945.59;4921689;28;117953;-79
2022/05/17 04:44:38;;;;;;;9.23;4.53;;;;;;;18.80;55.47;101949.06;4914201;28;124207;-79
2022/05/17 04:47:06;;;;;;;6.80;4.05;;;;;;;18.83;55.62;101948.88;4899856;28;122020;-78
2022/05/17 04:49:33;;;;;;;9.40;4.60;;;;;;;18.86;55.36;101954.06;4899168;28;118505;-78
2022/05/17 04:52:01;;;;;;;9.23;4.80;;;;;;;18.90;55.38;101953.88;4898497;28;117798;-79
2022/05/17 04:54:29;;;;;;;10.25;4.93;;;;;;;18.91;55.49;101955.56;4908511;28;124094;-79
2022/05/17 04:56:56;;;;;;;9.50;5.20;;;;;;;18.95;55.36;101957.09;4895323;28;124462;-79
2022/05/17 04:59:23;;;;;;;10.48;4.75;;;;;;;18.97;55.58;101965.97;4903769;28;118695;-79
2022/05/17 05:01:51;;;;;;;8.05;4.70;;;;;;;19.00;55.39;101973.81;4900709;28;118538;-79
2022/05/17 05:04:18;;;;;;;12.27;4.97;;;;;;;19.04;55.27;101962.78;4918941;28;123828;-79
2022/05/17 05:06:45;;;;;;;12.70;4.95;;;;;;;19.08;55.54;101962.56;4918347;28;123526;-79
2022/05/17 05:09:13;;;;;;;8.73;4.93;;;;;;;19.12;55.44;101959.63;4903602;28;120847;-78
2022/05/17 05:11:41;;;;;;;13.20;4.97;;;;;;;19.17;55.35;101962.84;4914170;28;118292;-79
2022/05/17 05:14:09;;;;;;;9.27;4.40;;;;;;;19.21;55.41;101959.03;4904571;28;124206;-79
2022/05/17 05:16:37;;;;;;;9.75;4.30;;;;;;;19.26;55.40;101969.47;4901054;28;123969;-79
2022/05/17 05:19:05;;;;;;;7.45;4.30;;;;;;;19.31;55.28;101972.72;4899804;28;119995;-79
2022/05/17 05:21:32;;;;;;;9.13;4.30;;;;;;;19.36;55.27;101973.28;4904927;28;118214;-78
2022/05/17 05:24:00;;;;;;;10.07;4.72;;;;;;;19.40;55.28;101980.22;4908701;28;124253;-79
2022/05/17 05:26:27;;;;;;;9.20;4.22;;;;;;;19.43;55.03;101979.13;4920013;28;124151;-79
2022/05/17 05:28:54;;;;;;;9.05;4.78;;;;;;;19.47;55.07;101986.03;4925053;28;118304;-79
2022/05/17 05:31:22;;;;;;;10.73;5.00;;;;;;;19.51;55.11;101982.19;4904004;28;118866;-77
2022/05/17 05:33:49;;;;;;;10.43;4.78;;;;;;;19.55;54.90;101978.34;4923770;28;124182;-80
2022/05/17 05:36:16;;;;;;;8.88;4.85;;;;;;;19.62;54.96;101990.41;4920728;28;124005;-80
2022/05/17 05:38:43;;;;;;;7.82;4.68;;;;;;;19.69;55.12;101987.34;4905730;28;119409;-81
2022/05/17 05:41:14;;;;;;;7.97;4.72;;;;;;;19.75;55.01;101984.28;4920321;28;119176;-80
2022/05/17 05:43:41;;;;;;;13.05;4.93;;;;;;;19.80;54.94;101992.91;4916662;28;124173;-78
2022/05/17 05:46:09;;;;;;;11.20;5.43;;;;;;;19.85;54.94;101985.38;4917893;28;122823;-79
2022/05/17 05:48:36;;;;;;;7.53;4.72;;;;;;;19.90;55.03;101983.25;4909254;28;119848;-79
2022/05/17 05:51:03;;;;;;;9.60;4.80;;;;;;;19.97;54.92;101979.19;4894107;28;119372;-79
2022/05/17 05:53:31;;;;;;;9.27;4.95;;;;;;;20.02;54.96;101989.63;4905549;28;124253;-79
2022/05/17 05:56:01;;;;;;;7.22;4.90;;;;;;;20.08;54.97;101991.06;4908791;28;123691;-79
2022/05/17 05:58:34;;;;;;;8.88;5.05;;;;;;;20.14;54.84;101996.03;4918720;28;120768;-79
2022/05/17 06:01:02;;;;;;;8.02;4.70;;;;;;;20.20;54.91;102001.84;4906927;28;120069;-79
2022/05/17 06:03:29;;;;;;;10.15;5.00;;;;;;;20.29;54.64;102000.38;4922474;28;123107;-80
2022/05/17 06:05:56;;;;;;;10.13;5.20;;;;;;;20.38;54.55;102004.25;4905013;28;123589;-80
2022/05/17 06:08:24;;;;;;;12.05;5.35;;;;;;;20.43;54.57;102000.28;4895641;28;118780;-79
2022/05/17 06:10:51;;;;;;;10.35;5.70;;;;;;;20.49;54.52;102001.69;4902632;28;119407;-79
2022/05/17 06:13:18;;;;;;;10.48;5.80;;;;;;;20.53;54.48;102013.13;4908614;28;124257;-79
2022/05/17 06:15:46;;;;;;;9.73;5.30;;;;;;;20.57;54.46;102009.28;4916246;28;122577;-79
2022/05/17 06:18:14;;;;;;;13.63;5.45;;;;;;;20.63;54.42;102003.50;4906632;28;119724;-79
2022/05/17 06:20:41;;;;;;;9.43;5.75;;;;;;;20.72;54.47;102010.94;4918561;28;119690;-79
2022/05/17 06:23:10;;;;;;;11.23;5.55;;;;;;;20.80;54.05;102016.63;4918647;28;124522;-79
2022/05/17 06:25:38;;;;;;;6.90;4.80;;;;;;;20.89;54.36;102014.25;4894982;28;125083;-79
2022/05/17 06:28:05;;;;;;;9.15;5.45;;;;;;;20.98;54.35;102025.28;4888225;28;119813;-79
2022/05/17 06:30:32;;;;;;;9.18;5.68;;;;;;;21.07;54.04;102023.75;4890757;28;118048;-79
2022/05/17 06:33:01;;;;;;;10.20;6.10;;;;;;;21.14;54.24;102019.66;4903833;28;123391;-79
2022/05/17 06:35:28;;;;;;;10.70;5.85;;;;;;;21.23;54.00;102017.25;4919003;28;124222;-79
2022/05/17 06:37:55;;;;;;;12.50;6.85;;;;;;;21.30;53.88;102018.53;4903969;28;119112;-79
2022/05/17 06:40:22;;;;;;;10.15;5.97;;;;;;;21.38;53.61;102021.56;4904091;28;121557;-79
2022/05/17 06:42:49;;;;;;;10.88;6.15;;;;;;;21.50;53.55;102025.25;4914741;28;124571;-79
2022/05/17 06:45:16;;;;;;;13.93;6.47;;;;;;;21.62;53.59;102020.78;4918678;28;123918;-79
2022/05/17 06:47:44;;;;;;;10.95;6.13;;;;;;;21.72;53.32;102019.16;4908388;28;119321;-80
2022/05/17 06:50:11;;;;;;;12.43;6.40;;;;;;;21.82;53.08;102028.25;4930356;28;118966;-79
2022/05/17 06:52:38;;;;;;;10.00;5.88;;;;;;;21.91;53.07;102030.28;4927279;28;123662;-79
2022/05/17 06:55:06;;;;;;;11.88;6.18;;;;;;;21.97;52.87;102035.22;4926087;28;124359;-79
2022/05/17 06:57:36;;;;;;;8.98;5.88;;;;;;;22.06;52.62;102032.81;4929652;28;119633;-77
2022/05/17 07:00:07;;;;;;;8.77;6.18;;;;;;;22.13;52.57;102034.06;4916251;28;117387;-78
2022/05/17 07:02:35;;;;;;;11.07;6.18;;;;;;;22.19;52.52;102044.41;4915122;28;122904;-79
2022/05/17 07:05:03;;;;;;;8.95;6.15;;;;;;;22.23;52.22;102035.09;4910207;28;122893;-79
2022/05/17 07:07:44;;;;;;;11.25;7.20;;;;;;;22.27;52.16;102042.03;4910913;28;119237;-79
2022/05/17 07:13:13;;;;;;;11.70;6.43;;;;;;;22.31;52.11;102038.09;4897443;28;123867;-78
2022/05/17 07:15:47;;;;;;;9.93;6.32;;;;;;;22.32;52.13;102045.25;4909538;28;123716;-79
2022/05/17 07:18:18;;;;;;;12.45;6.80;;;;;;;22.34;51.79;102043.28;4911012;28;119602;-79
2022/05/17 07:20:46;;;;;;;11.48;6.50;;;;;;;22.38;51.96;102048.44;4905828;28;117554;-78
2022/05/17 07:23:16;;;;;;;12.57;6.43;;;;;;;22.40;51.94;102051.91;4908236;28;124896;-79
2022/05/17 07:25:45;;;;;;;13.90;7.00;;;;;;;22.43;51.79;102046.25;4925182;28;121962;-80
2022/05/17 07:28:17;;;;;;;11.32;6.38;;;;;;;22.45;52.00;102049.69;4903866;28;119800;-79
2022/05/17 07:30:45;;;;;;;9.02;5.55;;;;;;;22.50;51.76;102050.19;4907224;28;118045;-79
2022/05/17 07:33:12;;;;;;;9.18;6.25;;;;;;;22.55;51.83;102053.41;4915228;28;124390;-79
2022/05/17 07:35:39;;;;;;;10.23;6.65;;;;;;;22.60;51.87;102059.31;4913150;28;123971;-79
2022/05/17 07:38:07;;;;;;;14.02;7.18;;;;;;;22.65;51.81;102062.53;4915046;28;118896;-79
2022/05/17 07:40:35;;;;;;;13.30;6.90;;;;;;;22.71;51.88;102067.44;4911773;28;119532;-79
2022/05/17 07:43:02;;;;;;;9.45;6.80;;;;;;;22.77;51.95;102059.84;4904825;28;124270;-79
2022/05/17 07:45:29;;;;;;;10.68;7.60;;;;;;;22.83;52.19;102051.25;4894088;28;124011;-79
2022/05/17 07:47:57;;;;;;;11.57;7.20;;;;;;;22.90;51.87;102060.63;4904277;28;118601;-79
2022/05/17 07:50:24;;;;;;;9.88;6.80;;;;;;;22.96;51.79;102065.53;4897579;28;117006;-78
2022/05/17 07:52:51;;;;;;;10.50;6.88;;;;;;;23.03;51.76;102072.22;4900206;28;123864;-79
2022/05/17 07:55:19;;;;;;;9.40;7.20;;;;;;;23.08;51.72;102069.16;4935751;28;123121;-79
2022/05/17 07:57:46;;;;;;;10.32;6.82;;;;;;;23.15;51.47;102069.53;4916397;28;116828;-78
2022/05/17 08:00:15;;;;;;;12.88;6.53;;;;;;;23.19;51.65;102071.00;4887622;28;118841;-78
2022/05/17 08:02:42;;;;;;;12.65;7.28;;;;;;;23.22;51.70;102065.38;4916620;28;123772;-79
2022/05/17 08:05:10;;;;;;;12.73;7.20;;;;;;;23.23;51.63;102057.13;4902907;28;121571;-79
2022/05/17 08:07:38;;;;;;;11.00;6.55;;;;;;;23.24;51.29;102047.19;4920005;28;117439;-80
2022/05/17 08:10:06;;;;;;;12.13;6.55;;;;;;;;;;4936375;28;118370;-79
2022/05/17 08:12:33;;;;;;;11.43;6.70;;;;;;;23.16;51.01;102050.50;4927506;28;122873;-79
2022/05/17 08:15:00;;;;;;;10.23;6.35;;;;;;;23.12;51.06;102052.56;4916242;28;122043;-79
2022/05/17 08:17:27;;;;;;;13.18;6.32;;;;;;;23.07;51.11;102046.66;4917623;28;119125;-79
2022/05/17 08:19:54;;;;;;;10.40;6.47;;;;;;;23.08;51.19;102053.81;4916806;28;118776;-79
2022/05/17 08:22:21;;;;;;;12.52;5.95;;;;;;;23.09;51.28;102058.25;4917327;28;123071;-79
2022/05/17 08:27:37;;;;;;;10.57;6.10;;;;;;;23.10;50.92;102057.25;4915537;28;119462;-79
2022/05/17 08:30:14;;;;;;;8.00;5.60;;;;;;;23.11;50.79;102064.38;4918559;28;118892;-80
2022/05/17 08:35:39;;;;;;;8.10;5.10;;;;;;;23.09;50.48;102055.53;4917656;28;123613;-79
2022/05/17 08:38:07;;;;;;;11.03;5.60;;;;;;;23.10;50.69;102051.84;4902289;28;118646;-79
2022/05/17 08:40:46;;;;;;;11.07;5.53;;;;;;;23.12;50.21;102055.28;4915001;28;118191;-79
2022/05/17 08:43:39;;;;;;;9.52;5.28;;;;;;;23.13;50.35;102056.13;4913964;28;122891;-79
2022/05/17 08:46:22;;;;;;;11.80;5.75;;;;;;;23.13;50.52;102057.00;4908599;28;124136;-79
2022/05/17 08:49:01;;;;;;;8.73;4.80;;;;;;;23.18;50.63;102058.47;4928485;28;117459;-77
2022/05/17 08:51:40;;;;;;;10.25;5.40;;;;;;;23.23;50.43;102051.72;4917807;28;117922;-78
2022/05/17 08:54:13;;;;;;;8.85;4.38;;;;;;;23.30;49.95;102057.50;4924253;28;124151;-78
2022/05/17 08:56:49;;;;;;;7.75;4.93;;;;;;;23.31;50.26;102053.81;4886470;28;123059;-78
2022/05/17 08:59:21;;;;;;;8.02;4.43;;;;;;;23.38;50.35;102055.06;4912546;28;119441;-78
2022/05/17 09:02:04;;;;;;;7.18;4.57;;;;;;;23.43;50.39;102052.84;4882319;28;119335;-78
2022/05/17 09:04:53;;;;;;;7.35;4.13;;;;;;;23.49;49.82;102063.16;4908656;28;123631;-78
2022/05/17 09:08:03;;;;;;;6.13;3.78;;;;;;;23.51;49.61;102050.38;4906734;28;123647;-78
2022/05/17 09:10:36;;;;;;;8.60;3.78;;;;;;;23.55;49.54;102056.41;4893530;28;118423;-78
2022/05/17 09:13:13;;;;;;;7.32;4.20;;;;;;;23.60;49.46;102064.13;4905400;28;119957;-78
2022/05/17 09:15:40;;;;;;;7.03;3.70;;;;;;;23.64;49.21;102071.00;4917756;28;122716;-79
2022/05/17 09:18:10;;;;;;;8.13;4.05;;;;;;;23.65;49.21;102072.75;4887223;28;124150;-78
2022/05/17 09:20:39;;;;;;;7.63;3.75;;;;;;;23.65;49.05;102075.44;4930380;28;120486;-78
2022/05/17 09:23:08;;;;;;;7.35;3.85;;;;;;;23.66;48.94;102071.75;4911048;28;120047;-78
2022/05/17 09:26:00;;;;;;;10.15;3.72;;;;;;;23.65;48.85;102068.19;4931108;28;122149;-79
2022/05/17 09:28:48;;;;;;;8.50;3.38;;;;;;;23.63;48.99;102066.59;4915479;28;123587;-79
2022/05/17 09:31:30;;;;;;;8.65;3.50;;;;;;;23.60;48.70;102064.13;4920697;28;118369;-79
2022/05/17 09:34:00;;;;;;;9.18;4.13;;;;;;;23.58;49.05;102057.97;4912538;28;119135;-81
2022/05/17 09:36:41;;;;;;;8.25;3.70;;;;;;;23.55;48.90;102050.13;4922517;28;122436;-79
2022/05/17 09:39:09;;;;;;;6.38;3.38;;;;;;;23.51;48.68;102044.97;4903815;28;123371;-78
2022/05/17 09:41:39;;;;;;;9.77;4.30;;;;;;;23.46;48.71;102047.16;4923828;28;118755;-78
2022/05/17 09:44:28;;;;;;;8.18;4.43;;;;;;;23.41;48.63;102049.38;4922800;28;118543;-77
2022/05/17 09:46:59;;;;;;;7.53;4.00;;;;;;;23.41;48.81;102052.09;4899816;28;125211;-78
2022/05/17 09:52:34;;;;;;;9.18;4.40;;;;;;;23.49;49.16;102051.50;4899565;28;118872;-79
2022/05/17 09:55:12;;;;;;;13.20;5.72;;;;;;;23.56;49.53;102051.84;4913620;28;119387;-79
2022/05/17 09:58:08;;;;;;;12.10;5.50;;;;;;;23.65;49.78;102040.28;4922128;28;123192;-79
2022/05/17 10:00:42;;;;;;;9.93;5.85;;;;;;;23.76;49.72;102032.13;4892315;28;122903;-77
2022/05/17 10:03:12;;;;;;;11.52;5.32;;;;;;;23.84;49.48;102029.69;4894918;28;118374;-77
2022/05/17 10:05:45;;;;;;;7.53;4.65;;;;;;;23.92;48.96;102030.91;4905302;28;118470;-76
2022/05/17 10:08:12;;;;;;;8.13;4.72;;;;;;;23.99;48.61;102037.53;4903892;28;124423;-76
2022/05/17 10:10:43;;;;;;;10.35;5.60;;;;;;;24.08;48.53;102026.78;4896462;28;124603;-76
2022/05/17 10:13:35;;;;;;;11.77;5.15;;;;;;;24.13;48.46;102023.72;4915279;28;120129;-75
2022/05/17 10:16:13;;;;;;;10.70;5.90;;;;;;;24.18;48.64;102021.44;4906002;28;119723;-75
2022/05/17 10:18:48;;;;;;;7.97;5.53;;;;;;;24.28;48.77;102016.16;4917688;28;124212;-78
2022/05/17 10:21:34;;;;;;;11.48;5.72;;;;;;;24.37;48.88;102015.34;4897879;28;122000;-75
2022/05/17 10:24:30;;;;;;;8.88;6.00;;;;;;;24.48;48.59;102011.72;4916741;28;119810;-77
2022/05/17 10:27:09;;;;;;;9.25;5.63;;;;;;;24.60;48.31;102017.94;4917405;28;118983;-77
2022/05/17 10:29:49;;;;;;;10.60;5.57;;;;;;;24.67;47.92;102021.84;4909583;28;123016;-75
2022/05/17 10:32:29;;;;;;;9.75;5.10;;;;;;;24.73;47.45;102009.63;4906694;28;123316;-75
2022/05/17 10:35:17;;;;;;;9.85;4.60;;;;;;;24.77;47.31;102013.78;4911946;28;117278;-76
2022/05/17 10:37:53;;;;;;;9.73;4.90;;;;;;;24.86;47.18;102002.13;4900102;28;118579;-76
2022/05/17 10:40:29;;;;;;;;;;;;;;;24.96;47.87;102008.50;4922759;28;123530;-77
2022/05/17 10:42:57;;;;;;;8.45;5.20;;;;;;;25.14;47.46;101999.72;4907584;28;123487;-76
2022/05/17 10:45:33;;;;;;;10.88;5.72;;;;;;;25.29;47.36;102001.09;4892627;28;119709;-77
2022/05/17 10:48:14;;;;;;;8.77;4.55;;;;;;;25.47;47.06;102003.13;4914908;28;118476;-78
2022/05/17 10:51:06;;;;;;;5.95;3.50;;;;;;;25.56;46.33;102002.31;4903927;28;124496;-78
2022/05/17 10:54:01;;;;;;;7.25;3.83;;;;;;;25.59;46.09;101992.03;4905930;28;121793;-76
2022/05/17 10:56:44;;;;;;;4.65;3.20;;;;;;;25.61;45.58;101994.59;4908944;28;118956;-75
2022/05/17 10:59:34;;;;;;;8.32;3.53;;;;;;;25.60;45.78;101998.34;4891595;28;118544;-76
2022/05/17 11:02:36;;;;;;;6.95;3.55;;;;;;;25.61;45.65;101995.47;4922062;28;123740;-76
2022/05/17 11:05:24;;;;;;;7.18;3.97;;;;;;;25.65;45.52;101985.19;4887493;28;123325;-75
2022/05/17 11:08:12;;;;;;;5.70;3.40;;;;;;;25.67;45.33;101977.75;4887664;28;119799;-76
2022/05/17 11:11:02;;;;;;;8.65;3.45;;;;;;;25.68;45.49;101974.06;4902109;28;118891;-75
2022/05/17 11:14:03;;;;;;;7.25;3.50;;;;;;;25.78;45.44;101996.63;4870760;28;123539;-76
2022/05/17 11:16:36;;;;;;;4.22;2.80;;;;;;;25.82;45.18;101987.25;4887696;28;123685;-76
2022/05/17 11:19:17;;;;;;;5.97;2.80;;;;;;;25.89;45.00;101986.66;4902777;28;118205;-76
2022/05/17 11:21:54;;;;;;;5.93;2.83;;;;;;;25.92;45.24;101980.97;4884962;28;119147;-76
2022/05/17 11:24:46;;;;;;;4.95;3.00;;;;;;;25.95;44.75;101986.13;4886686;28;123589;-76
2022/05/17 11:27:22;;;;;;;5.82;2.97;;;;;;;25.94;44.52;101984.41;4889894;28;124442;-76
2022/05/17 11:29:52;;;;;;;6.82;3.20;;;;;;;25.94;44.73;101979.00;4891992;28;119282;-76
2022/05/17 11:32:35;;;;;;;9.38;3.30;;;;;;;25.95;44.56;101980.69;4908147;28;118923;-76
2022/05/17 11:35:31;;;;;;;10.02;4.00;;;;;;;25.99;44.95;101971.25;4874997;28;124128;-76
2022/05/17 11:37:59;;;;;;;5.55;3.45;;;;;;;26.05;44.88;101969.81;4881823;28;126174;-76
2022/05/17 11:40:50;;;;;;;6.53;3.45;;;;;;;26.07;44.64;101965.09;4889994;28;118937;-76
2022/05/17 11:43:41;;;;;;;5.85;3.50;;;;;;;26.10;45.29;101962.97;4891431;28;118814;-75
2022/05/17 11:46:23;;;;;;;6.90;3.17;;;;;;;26.19;44.84;101962.09;4892412;28;124012;-76
2022/05/17 11:48:58;;;;;;;4.80;3.10;;;;;;;26.29;44.58;101966.66;4905577;28;124949;-76
2022/05/17 11:51:32;;;;;;;6.68;2.65;;;;;;;26.34;44.20;101964.38;4890815;28;119720;-76
2022/05/17 11:54:03;;;;;;;5.18;2.60;;;;;;;26.34;43.78;101953.53;4875606;28;118345;-76